Terminal Aerodrome Forecast
Issued by NWS

Home | Current Version | Previous Version | Text Only | Print | Product List | Glossary On
Versions: 1 2 3 4 5 6 7 8 9 10 11 12 13 14 15 16 17 18
000
FTUS43 KGRB 232339
TAFRHI
TAF
KRHI 232339Z 2400/2424 36007G17KT P6SM OVC025
     FM240200 02005KT P6SM BKN022
     FM240600 03003KT 3SM BR BKN014
      TEMPO 2409/2411 1SM BR BKN008
     FM241300 06004KT P6SM SCT025
     FM241800 03005KT P6SM SCT060
     FM242100 14003KT P6SM SKC=

USA.gov is the U.S. government's official web portal to all federal, state and local government web resources and services.